Time;durP1;ratioP1;P1;durP2;ratioP2;P2;SDS_P1;SDS_P2;PMS_P1;PMS_P2;Temp;Humidity;BMP_temperature;BMP_pressure;BME280_temperature;BME280_humidity;BME280_pressure;Samples;Min_cycle;Max_cycle;Signal;HPM_P1;HPM_P2
2021/10/11 00:01:16;;;;;;;18.63;8.47;;;;;;;10.65;44.91;101405.56;5010549;28;20125;-75
2021/10/11 00:03:42;;;;;;;16.40;8.50;;;;;;;10.65;44.93;101408.25;5008119;28;20088;-74
2021/10/11 00:06:09;;;;;;;19.70;9.43;;;;;;;10.65;44.74;101405.56;5006663;28;20133;-76
2021/10/11 00:08:36;;;;;;;17.37;10.33;;;;;;;10.67;45.12;101403.22;5005937;28;20140;-74
2021/10/11 00:11:03;;;;;;;20.20;9.13;;;;;;;10.67;44.77;101397.78;5006282;28;20125;-75
2021/10/11 00:13:29;;;;;;;16.03;8.07;;;;;;;10.64;45.42;101404.00;5004565;28;20050;-75
2021/10/11 00:15:56;;;;;;;22.37;9.97;;;;;;;10.66;44.72;101393.53;4999932;28;20057;-75
2021/10/11 00:18:23;;;;;;;17.70;9.30;;;;;;;10.59;44.62;101397.81;4994882;28;20511;-74
2021/10/11 00:20:50;;;;;;;23.87;9.97;;;;;;;10.58;44.72;101390.81;5009615;28;20054;-73
2021/10/11 00:23:17;;;;;;;21.23;10.10;;;;;;;10.58;44.85;101385.41;5009762;28;20138;-75
2021/10/11 00:25:44;;;;;;;21.33;11.43;;;;;;;10.58;44.37;101398.97;5007704;28;20490;-74
2021/10/11 00:28:10;;;;;;;20.83;10.13;;;;;;;10.58;44.88;101401.69;5038576;28;20128;-74
2021/10/11 00:30:37;;;;;;;25.50;10.70;;;;;;;10.61;44.81;101399.38;5008280;28;20510;-74
2021/10/11 00:33:05;;;;;;;22.47;11.63;;;;;;;10.58;44.62;101385.41;4999888;28;20546;-75
2021/10/11 00:35:33;;;;;;;24.63;10.80;;;;;;;10.59;45.05;101386.94;5006953;28;20141;-74
2021/10/11 00:37:59;;;;;;;20.70;9.43;;;;;;;10.56;44.85;101382.28;5007867;28;20042;-74
2021/10/11 00:40:26;;;;;;;28.43;11.57;;;;;;;10.57;44.88;101380.34;5003171;28;20050;-75
2021/10/11 00:42:53;;;;;;;29.20;12.53;;;;;;;10.56;45.06;101376.84;4996283;28;20077;-75
2021/10/11 00:45:20;;;;;;;32.03;12.63;;;;;;;10.54;45.36;101373.75;5001780;28;20137;-74
2021/10/11 00:47:47;;;;;;;35.07;13.23;;;;;;;10.51;45.41;101368.31;5012283;28;20089;-75
2021/10/11 00:50:13;;;;;;;24.87;12.40;;;;;;;10.49;45.26;101370.63;5006983;28;20135;-75
2021/10/11 00:52:40;;;;;;;28.03;12.50;;;;;;;10.46;45.90;101363.25;5005758;28;20129;-75
2021/10/11 00:55:08;;;;;;;33.73;13.47;;;;;;;10.42;46.10;101355.09;5019695;28;20092;-75
2021/10/11 00:57:35;;;;;;;31.70;13.80;;;;;;;10.36;46.39;101353.19;5004769;28;20081;-74
2021/10/11 01:00:03;;;;;;;37.23;14.40;;;;;;;10.32;46.59;101350.47;5008012;28;20109;-75
2021/10/11 01:02:30;;;;;;;31.97;14.13;;;;;;;10.29;46.42;101356.66;5032430;28;20054;-75
2021/10/11 01:04:57;;;;;;;30.07;14.37;;;;;;;10.27;47.17;101350.84;5005092;28;20108;-75
2021/10/11 01:07:24;;;;;;;34.63;13.67;;;;;;;10.20;47.17;101348.88;5007035;28;20069;-74
2021/10/11 01:09:51;;;;;;;29.80;13.40;;;;;;;10.19;47.40;101346.56;5005319;28;20046;-73
2021/10/11 01:12:18;;;;;;;30.80;13.57;;;;;;;10.12;47.75;101349.25;5001554;28;20125;-74
2021/10/11 01:14:45;;;;;;;28.73;13.57;;;;;;;10.09;47.78;101348.06;5021209;28;20049;-75
2021/10/11 01:17:11;;;;;;;34.83;14.67;;;;;;;10.06;47.79;101348.06;5002359;28;20089;-75
2021/10/11 01:19:38;;;;;;;36.60;15.13;;;;;;;10.03;47.80;101348.81;5008463;28;20442;-75
2021/10/11 01:22:05;;;;;;;36.80;15.00;;;;;;;9.95;49.31;101352.66;5004271;28;20085;-76
2021/10/11 01:24:32;;;;;;;28.17;14.07;;;;;;;9.89;48.04;101344.94;4997155;28;20560;-76
2021/10/11 01:27:00;;;;;;;26.80;14.13;;;;;;;9.88;48.16;101346.09;5008110;28;20057;-75
2021/10/11 01:29:26;;;;;;;35.90;15.17;;;;;;;9.85;48.04;101346.84;5021693;28;20096;-74
2021/10/11 01:31:53;;;;;;;38.30;15.33;;;;;;;9.82;48.26;101350.31;5018116;28;20238;-74
2021/10/11 01:34:20;;;;;;;38.30;15.00;;;;;;;9.81;48.71;101354.19;5004892;28;20566;-75
2021/10/11 01:36:47;;;;;;;35.93;15.23;;;;;;;9.79;48.99;101355.72;5008686;28;20530;-74
2021/10/11 01:39:14;;;;;;;33.17;15.03;;;;;;;9.75;49.10;101346.78;5008828;28;20819;-75
2021/10/11 01:41:40;;;;;;;29.83;14.87;;;;;;;9.72;48.69;101345.63;5001333;28;20847;-75
2021/10/11 01:44:08;;;;;;;31.97;14.83;;;;;;;9.68;48.62;101349.50;5002533;28;20145;-75
2021/10/11 01:46:35;;;;;;;34.20;14.50;;;;;;;9.66;48.24;101338.25;5001964;28;20077;-74
2021/10/11 01:49:03;;;;;;;31.77;15.43;;;;;;;9.66;48.11;101341.75;5008455;28;20788;-74
2021/10/11 01:51:30;;;;;;;33.27;14.40;;;;;;;9.67;48.23;101331.69;5001874;28;20141;-75
2021/10/11 01:53:57;;;;;;;31.57;15.27;;;;;;;9.66;48.27;101330.91;5006048;28;20060;-75
2021/10/11 01:56:24;;;;;;;28.80;14.57;;;;;;;9.66;48.05;101335.56;5005902;28;20459;-74
2021/10/11 01:58:50;;;;;;;28.67;14.53;;;;;;;9.65;48.45;101329.34;5020383;28;20054;-74
2021/10/11 02:01:17;;;;;;;27.23;14.33;;;;;;;9.61;48.85;101331.25;5015217;28;20074;-76
2021/10/11 02:03:44;;;;;;;30.70;13.77;;;;;;;9.57;48.71;101325.03;5007153;28;20085;-76
2021/10/11 02:06:11;;;;;;;32.07;14.67;;;;;;;9.52;48.93;101325.41;5000422;28;20455;-76
2021/10/11 02:08:38;;;;;;;28.70;14.40;;;;;;;9.43;49.40;101316.88;5003234;28;20466;-74
2021/10/11 02:11:05;;;;;;;34.30;14.00;;;;;;;9.39;50.41;101326.91;5001096;28;20049;-75
2021/10/11 02:13:32;;;;;;;25.00;12.93;;;;;;;9.34;50.32;101329.97;5023432;28;20486;-76
2021/10/11 02:15:58;;;;;;;25.80;12.27;;;;;;;9.27;51.05;101329.94;5005593;28;20141;-75
2021/10/11 02:18:25;;;;;;;21.93;10.77;;;;;;;9.21;51.42;101327.56;5004010;28;20046;-75
2021/10/11 02:20:52;;;;;;;23.87;11.70;;;;;;;9.17;51.37;101324.09;5022148;28;20054;-74
2021/10/11 02:23:19;;;;;;;21.07;11.33;;;;;;;9.18;51.36;101322.94;5010561;28;20080;-75
2021/10/11 02:25:46;;;;;;;20.67;10.63;;;;;;;9.19;51.43;101319.06;5010097;28;20488;-75
2021/10/11 02:28:12;;;;;;;23.00;11.80;;;;;;;9.18;51.76;101317.53;5015517;28;20514;-75
2021/10/11 02:30:39;;;;;;;23.67;10.70;;;;;;;9.20;51.85;101320.63;4998533;28;20141;-75
2021/10/11 02:33:06;;;;;;;20.47;10.87;;;;;;;9.20;51.88;101317.16;5000740;28;20136;-76
2021/10/11 02:35:33;;;;;;;19.73;10.43;;;;;;;9.21;51.75;101316.75;5003073;28;20153;-75
2021/10/11 02:37:59;;;;;;;25.20;11.33;;;;;;;9.23;51.80;101313.66;5007351;28;20129;-74
2021/10/11 02:40:26;;;;;;;25.40;10.83;;;;;;;9.21;51.71;101311.31;5008003;28;20638;-75
2021/10/11 02:42:53;;;;;;;24.23;10.53;;;;;;;9.19;52.08;101310.94;5022219;28;20085;-76
2021/10/11 02:45:20;;;;;;;22.87;10.40;;;;;;;9.19;51.61;101305.53;5011176;28;20482;-75
2021/10/11 02:47:47;;;;;;;16.77;9.53;;;;;;;9.22;52.36;101307.47;5011943;28;20538;-74
2021/10/11 02:50:14;;;;;;;19.93;9.87;;;;;;;9.22;51.86;101303.97;5003491;28;20137;-74
2021/10/11 02:52:40;;;;;;;17.90;9.90;;;;;;;9.21;52.03;101300.47;5011215;28;20124;-75
2021/10/11 02:55:07;;;;;;;16.23;9.83;;;;;;;9.18;52.77;101297.78;5010364;28;20137;-75
2021/10/11 02:57:34;;;;;;;19.03;9.30;;;;;;;9.19;52.38;101291.97;5008972;28;20100;-75
2021/10/11 03:00:03;;;;;;;20.23;9.27;;;;;;;9.16;52.10;101292.75;5006147;28;20085;-75
2021/10/11 03:02:30;;;;;;;20.13;9.13;;;;;;;9.17;52.41;101294.28;5008384;28;20140;-75
2021/10/11 03:04:57;;;;;;;21.00;10.13;;;;;;;9.18;52.57;101290.44;5008954;28;20100;-75
2021/10/11 03:07:23;;;;;;;25.97;11.73;;;;;;;9.22;52.33;101295.84;5010658;28;20049;-76
2021/10/11 03:09:50;;;;;;;22.00;10.73;;;;;;;9.24;53.05;101288.13;5008820;28;20133;-76
2021/10/11 03:12:17;;;;;;;27.93;11.90;;;;;;;9.21;52.77;101283.47;5012816;28;20129;-73
2021/10/11 03:14:44;;;;;;;25.27;10.27;;;;;;;9.22;52.36;101274.94;5004306;28;20140;-74
2021/10/11 03:17:12;;;;;;;28.63;11.73;;;;;;;9.19;52.54;101275.72;5008382;28;20057;-74
2021/10/11 03:19:39;;;;;;;24.97;11.93;;;;;;;9.19;51.80;101273.03;5007465;28;20137;-74
2021/10/11 03:22:06;;;;;;;23.73;11.50;;;;;;;9.20;52.10;101276.50;5004390;28;20575;-76
2021/10/11 03:24:32;;;;;;;24.90;10.90;;;;;;;9.17;52.63;101271.84;5010352;28;20137;-75
2021/10/11 03:26:59;;;;;;;21.50;10.20;;;;;;;9.15;52.64;101264.09;5009360;28;20081;-76
2021/10/11 03:29:27;;;;;;;19.13;10.30;;;;;;;9.15;52.66;101263.31;5007514;28;20045;-76
2021/10/11 03:31:53;;;;;;;23.47;10.43;;;;;;;9.15;53.22;101268.72;5007358;28;20046;-75
2021/10/11 03:34:21;;;;;;;24.60;10.23;;;;;;;9.16;53.25;101262.94;5008838;28;20125;-75
2021/10/11 03:36:48;;;;;;;26.57;12.03;;;;;;;9.16;53.00;101260.22;5002926;28;20137;-76
2021/10/11 03:39:15;;;;;;;25.30;11.30;;;;;;;9.15;53.62;101252.47;5007513;28;20113;-76
2021/10/11 03:41:42;;;;;;;30.33;12.57;;;;;;;9.14;53.62;101254.41;5006380;28;20562;-76
2021/10/11 03:44:08;;;;;;;22.20;9.63;;;;;;;9.13;53.24;101255.56;5008223;28;20474;-75
2021/10/11 03:46:36;;;;;;;19.33;9.47;;;;;;;9.11;52.69;101257.09;5008727;28;20058;-75
2021/10/11 03:49:03;;;;;;;21.47;9.67;;;;;;;9.11;53.75;101252.47;5009078;28;20571;-75
2021/10/11 03:51:31;;;;;;;17.60;9.93;;;;;;;9.15;53.49;101249.78;5009484;28;20136;-75
2021/10/11 03:53:58;;;;;;;20.77;9.33;;;;;;;9.12;53.10;101259.44;5029029;28;20134;-75
2021/10/11 03:56:26;;;;;;;16.63;9.30;;;;;;;9.13;53.02;101258.28;5008681;28;20074;-76
2021/10/11 03:58:53;;;;;;;23.50;10.33;;;;;;;9.15;53.66;101258.69;5009619;28;20137;-74
2021/10/11 04:01:20;;;;;;;21.37;10.47;;;;;;;9.15;53.47;101247.84;5006055;28;20185;-75
2021/10/11 04:03:47;;;;;;;17.83;9.47;;;;;;;9.16;53.29;101248.63;5004645;28;20053;-74
2021/10/11 04:06:14;;;;;;;16.70;9.10;;;;;;;9.22;52.80;101252.50;4999751;28;20134;-75
2021/10/11 04:08:44;;;;;;;21.47;9.93;;;;;;;9.23;53.43;101243.97;5006819;28;20046;-75
2021/10/11 04:11:22;;;;;;;17.07;9.27;;;;;;;9.24;52.93;101242.81;5011552;28;20127;-75
2021/10/11 04:13:49;;;;;;;20.13;9.43;;;;;;;9.29;52.67;101243.63;5010734;28;20175;-76
2021/10/11 04:16:16;;;;;;;15.97;9.03;;;;;;;9.31;52.85;101239.38;5009881;28;20137;-74
2021/10/11 04:18:43;;;;;;;21.70;9.63;;;;;;;9.35;52.53;101239.41;5010753;28;20132;-74
2021/10/11 04:21:10;;;;;;;23.63;10.83;;;;;;;9.36;52.60;101239.00;5003104;28;20085;-75
2021/10/11 04:23:36;;;;;;;25.33;10.40;;;;;;;9.38;52.14;101238.63;5005332;28;20086;-75
2021/10/11 04:26:04;;;;;;;22.47;10.53;;;;;;;9.40;52.22;101241.75;5018667;28;20128;-75
2021/10/11 04:28:31;;;;;;;22.33;10.50;;;;;;;9.41;51.88;101237.88;5008468;28;20053;-75
2021/10/11 04:30:57;;;;;;;19.67;9.07;;;;;;;9.46;52.21;101234.78;4998282;28;20166;-74
2021/10/11 04:33:25;;;;;;;20.03;9.93;;;;;;;9.46;52.23;101237.47;5007633;28;20478;-76
2021/10/11 04:35:52;;;;;;;21.60;10.10;;;;;;;9.48;52.24;101232.47;5022905;28;20085;-75
2021/10/11 04:38:19;;;;;;;21.00;10.73;;;;;;;9.48;51.65;101227.03;5007389;28;20241;-74
2021/10/11 04:40:46;;;;;;;25.53;10.63;;;;;;;9.49;51.77;101229.38;4999040;28;20506;-75
2021/10/11 04:43:13;;;;;;;22.00;11.97;;;;;;;9.52;52.13;101225.13;5002956;28;20116;-75
2021/10/11 04:45:40;;;;;;;21.67;10.90;;;;;;;9.56;52.58;101223.19;5008998;28;20097;-74
2021/10/11 04:48:10;;;;;;;20.50;10.23;;;;;;;9.56;52.34;101218.53;4998779;28;20179;-75
2021/10/11 04:50:37;;;;;;;32.03;15.97;;;;;;;9.59;52.52;101219.72;5006461;28;20073;-74
2021/10/11 04:53:05;;;;;;;46.83;22.70;;;;;;;9.61;52.83;101225.53;5001792;28;20046;-76
2021/10/11 04:55:33;;;;;;;22.50;11.33;;;;;;;9.66;52.10;101227.09;5006631;28;20085;-75
2021/10/11 04:58:00;;;;;;;22.53;11.10;;;;;;;9.68;51.63;101230.19;5002402;28;20097;-74
2021/10/11 05:00:28;;;;;;;29.17;11.90;;;;;;;9.68;51.88;101225.56;5005516;28;20092;-75
2021/10/11 05:02:56;;;;;;;19.80;10.37;;;;;;;9.73;52.29;101227.88;4997686;28;20054;-78
2021/10/11 05:05:23;;;;;;;21.57;11.37;;;;;;;9.76;52.40;101220.91;5007912;28;20100;-78
2021/10/11 05:07:49;;;;;;;30.53;11.20;;;;;;;9.76;51.92;101221.69;5010936;28;20904;-79
2021/10/11 05:10:16;;;;;;;21.83;10.60;;;;;;;9.76;51.87;101229.81;5012128;28;20104;-75
2021/10/11 05:12:43;;;;;;;19.70;9.73;;;;;;;9.79;52.02;101231.75;5012471;28;20136;-75
2021/10/11 05:15:10;;;;;;;25.97;10.77;;;;;;;9.82;51.58;101225.56;5004592;28;20453;-76
2021/10/11 05:17:38;;;;;;;18.13;10.60;;;;;;;9.84;51.89;101220.53;4999679;28;20076;-75
2021/10/11 05:20:06;;;;;;;25.37;11.07;;;;;;;9.82;51.85;101222.84;5006361;28;20200;-75
2021/10/11 05:22:32;;;;;;;24.33;11.80;;;;;;;9.86;51.47;101223.63;5008821;28;20132;-73
2021/10/11 05:24:59;;;;;;;24.30;11.37;;;;;;;9.88;52.06;101206.97;5008945;28;20054;-77
2021/10/11 05:27:26;;;;;;;26.90;10.77;;;;;;;9.90;51.66;101213.56;5007707;28;20441;-74
2021/10/11 05:29:53;;;;;;;22.60;11.77;;;;;;;9.98;51.07;101210.84;5001639;28;20133;-75
2021/10/11 05:32:20;;;;;;;27.80;12.20;;;;;;;10.05;51.37;101210.84;4999579;28;20124;-75
2021/10/11 05:34:47;;;;;;;23.60;10.93;;;;;;;10.12;51.31;101210.88;5009155;28;20085;-75
2021/10/11 05:37:14;;;;;;;24.37;11.07;;;;;;;10.17;50.73;101215.88;5006199;28;20085;-76
2021/10/11 05:39:41;;;;;;;22.20;10.27;;;;;;;10.24;50.39;101218.63;5009663;28;20085;-75
2021/10/11 05:42:08;;;;;;;22.83;11.30;;;;;;;10.30;49.70;101221.72;5001816;28;20466;-75
2021/10/11 05:44:36;;;;;;;22.53;10.30;;;;;;;10.30;49.00;101217.09;5009459;28;20094;-76
2021/10/11 05:47:03;;;;;;;24.50;10.63;;;;;;;10.33;48.82;101219.03;5004041;28;20148;-75
2021/10/11 05:49:31;;;;;;;23.00;9.60;;;;;;;10.38;48.88;101224.06;5006345;28;20089;-75
2021/10/11 05:51:58;;;;;;;29.43;10.00;;;;;;;10.42;49.04;101219.38;5005089;28;20081;-76
2021/10/11 05:54:24;;;;;;;19.73;9.13;;;;;;;10.48;48.35;101222.47;5014939;28;20496;-76
2021/10/11 05:56:51;;;;;;;24.07;9.43;;;;;;;10.48;48.40;101220.53;5009075;28;20137;-75
2021/10/11 05:59:18;;;;;;;22.13;9.30;;;;;;;10.51;48.24;101214.34;5013377;28;20085;-75
2021/10/11 06:01:45;;;;;;;25.07;9.60;;;;;;;10.56;48.32;101213.94;5011821;28;20153;-77
2021/10/11 06:04:12;;;;;;;21.10;9.17;;;;;;;10.55;47.74;101215.13;5003895;28;20061;-76
2021/10/11 06:06:39;;;;;;;18.70;9.07;;;;;;;10.54;47.77;101221.72;5005689;28;20085;-75
2021/10/11 06:09:05;;;;;;;19.80;10.23;;;;;;;10.53;47.92;101217.44;5009839;28;20136;-75
2021/10/11 06:11:32;;;;;;;23.03;9.40;;;;;;;10.54;47.48;101221.72;5007620;28;20082;-76
2021/10/11 06:13:59;;;;;;;17.03;8.77;;;;;;;10.58;47.78;101214.34;5013693;28;20141;-75
2021/10/11 06:16:26;;;;;;;19.43;9.30;;;;;;;10.64;47.38;101213.91;5019451;28;20133;-74
2021/10/11 06:18:53;;;;;;;18.13;8.27;;;;;;;10.67;47.83;101213.13;4996186;28;20348;-76
2021/10/11 06:21:20;;;;;;;19.00;8.47;;;;;;;10.73;47.44;101208.84;5010964;28;20652;-75
2021/10/11 06:23:47;;;;;;;17.53;8.83;;;;;;;10.75;47.67;101209.25;5007731;28;20054;-75
2021/10/11 06:26:14;;;;;;;21.27;8.40;;;;;;;10.76;47.37;101199.94;5010975;28;20141;-75
2021/10/11 06:28:40;;;;;;;14.27;8.50;;;;;;;10.84;47.57;101204.19;5011008;28;20144;-76
2021/10/11 06:31:07;;;;;;;19.33;8.27;;;;;;;10.85;47.17;101200.31;5012541;28;20172;-76
2021/10/11 06:33:34;;;;;;;17.70;8.40;;;;;;;10.88;47.36;101202.22;5022918;28;20116;-75
2021/10/11 06:36:01;;;;;;;15.47;8.67;;;;;;;10.92;47.19;101198.31;5016089;28;20100;-75
2021/10/11 06:38:28;;;;;;;15.33;7.77;;;;;;;10.96;47.63;101197.53;5027649;28;20128;-76
2021/10/11 06:40:55;;;;;;;16.23;7.87;;;;;;;11.02;47.10;101201.41;5010807;28;20145;-76
2021/10/11 06:43:21;;;;;;;16.50;7.83;;;;;;;11.07;46.88;101198.28;5008449;28;20483;-76
2021/10/11 06:45:48;;;;;;;18.87;8.23;;;;;;;11.09;47.16;101182.34;5011951;28;20112;-74
2021/10/11 06:48:17;;;;;;;14.63;7.40;;;;;;;11.17;46.77;101181.13;5011861;28;20141;-76
2021/10/11 06:50:45;;;;;;;12.00;7.40;;;;;;;11.29;46.80;101167.09;5012169;28;20077;-76
2021/10/11 06:53:12;;;;;;;14.30;7.23;;;;;;;11.38;46.40;101172.09;5026831;28;20050;-76
2021/10/11 06:55:39;;;;;;;13.90;7.77;;;;;;;11.45;46.26;101180.22;5012357;28;20434;-76
2021/10/11 06:58:06;;;;;;;18.80;8.07;;;;;;;11.52;46.42;101174.72;5002407;28;20430;-76
2021/10/11 07:00:34;;;;;;;13.63;7.40;;;;;;;11.58;45.71;101179.31;5010491;28;20054;-76
2021/10/11 07:03:01;;;;;;;14.43;7.57;;;;;;;11.65;45.54;101180.47;5011733;28;20053;-75
2021/10/11 07:05:28;;;;;;;15.33;7.80;;;;;;;11.75;45.77;101166.78;5043642;28;20132;-75
2021/10/11 07:07:57;;;;;;;11.77;6.73;;;;;;;11.86;45.71;101162.06;5012098;28;20054;-74
2021/10/11 07:10:25;;;;;;;12.23;7.13;;;;;;;12.00;45.30;101168.56;5009797;28;20542;-77
2021/10/11 07:12:52;;;;;;;14.00;6.83;;;;;;;12.06;45.25;101162.28;5015424;28;20053;-75
2021/10/11 07:15:20;;;;;;;13.67;7.53;;;;;;;12.12;45.16;101159.91;5010168;28;20053;-76
2021/10/11 07:17:47;;;;;;;14.67;7.53;;;;;;;12.16;45.17;101157.94;5015809;28;20064;-74
2021/10/11 07:20:14;;;;;;;18.87;8.80;;;;;;;12.21;45.06;101152.06;5010994;28;20604;-74
2021/10/11 07:22:40;;;;;;;21.40;7.50;;;;;;;12.25;45.00;101155.50;5008641;28;20486;-75
2021/10/11 07:25:08;;;;;;;16.23;8.53;;;;;;;12.34;44.67;101153.06;5010283;28;20100;-76
2021/10/11 07:27:34;;;;;;;14.80;8.40;;;;;;;12.37;44.72;101144.09;5007098;28;20133;-76
2021/10/11 07:30:03;;;;;;;19.57;10.07;;;;;;;12.41;44.75;101149.50;5010048;28;20057;-75
2021/10/11 07:32:30;;;;;;;20.00;9.67;;;;;;;12.46;44.89;101155.28;5010244;28;20446;-77
2021/10/11 07:34:57;;;;;;;17.80;10.30;;;;;;;12.44;44.98;101151.44;5011714;28;20077;-75
2021/10/11 07:37:24;;;;;;;20.67;9.93;;;;;;;12.44;45.03;101141.31;5010943;28;20487;-76
2021/10/11 07:39:51;;;;;;;20.07;9.70;;;;;;;12.43;44.72;101147.16;5009680;28;20172;-74
2021/10/11 07:42:18;;;;;;;14.77;9.00;;;;;;;12.43;44.50;101145.22;5010269;28;20084;-75
2021/10/11 07:44:45;;;;;;;17.67;8.93;;;;;;;12.46;45.00;101138.97;5010898;28;20094;-75
2021/10/11 07:47:11;;;;;;;17.80;9.33;;;;;;;12.51;44.73;101141.25;5010200;28;20080;-74
2021/10/11 07:49:38;;;;;;;16.87;8.43;;;;;;;12.51;44.81;101133.06;5020532;28;20487;-75
2021/10/11 07:52:05;;;;;;;17.37;9.03;;;;;;;12.51;44.88;101140.47;5010557;28;20137;-76
2021/10/11 07:54:32;;;;;;;18.33;9.60;;;;;;;12.54;44.92;101128.72;5025708;28;20379;-76
2021/10/11 07:56:59;;;;;;;15.47;8.00;;;;;;;12.58;44.91;101130.25;5012706;28;20430;-74
2021/10/11 07:59:28;;;;;;;15.90;8.90;;;;;;;12.64;45.10;101125.91;5009539;28;20081;-76
2021/10/11 08:01:56;;;;;;;10.93;7.13;;;;;;;12.75;44.68;101130.47;5010009;28;20061;-76
2021/10/11 08:04:23;;;;;;;14.73;7.67;;;;;;;12.87;45.02;101129.91;5007897;28;20061;-75
2021/10/11 08:06:50;;;;;;;19.40;7.57;;;;;;;13.02;44.92;101130.47;5021684;28;20104;-75
2021/10/11 08:09:17;;;;;;;14.97;6.97;;;;;;;13.11;44.85;101117.91;5010624;28;20068;-75
2021/10/11 08:11:43;;;;;;;12.47;6.90;;;;;;;13.17;44.66;101121.75;5009704;28;20093;-76
2021/10/11 08:14:11;;;;;;;12.97;7.50;;;;;;;13.24;44.67;101121.63;5013578;28;20522;-75
2021/10/11 08:16:38;;;;;;;12.63;6.90;;;;;;;13.23;44.73;101120.09;5005207;28;20181;-76
2021/10/11 08:19:06;;;;;;;9.60;6.43;;;;;;;13.25;44.87;101123.16;5010278;28;20045;-77
2021/10/11 08:21:33;;;;;;;12.27;6.03;;;;;;;13.18;44.67;101112.38;5008266;28;20458;-76
2021/10/11 08:24:04;;;;;;;14.97;7.07;;;;;;;13.13;44.71;101117.50;5041665;28;20442;-76
2021/10/11 08:26:34;;;;;;;15.10;7.33;;;;;;;13.13;45.26;101118.25;5003346;28;20112;-76
2021/10/11 08:29:03;;;;;;;15.73;7.23;;;;;;;13.06;45.02;101121.09;5025167;28;20557;-76
2021/10/11 08:31:32;;;;;;;11.23;7.27;;;;;;;13.12;45.14;101114.00;5010289;28;20058;-75
2021/10/11 08:34:00;;;;;;;22.90;7.40;;;;;;;13.17;45.30;101116.28;5033129;28;20049;-76
2021/10/11 08:36:27;;;;;;;16.80;7.73;;;;;;;13.23;45.04;101120.09;5008632;28;20111;-75
2021/10/11 08:38:54;;;;;;;15.40;7.23;;;;;;;13.32;45.37;101117.63;5001890;28;20105;-75
2021/10/11 08:41:21;;;;;;;14.27;7.43;;;;;;;13.41;45.50;101113.63;5023393;28;20125;-75
2021/10/11 08:43:48;;;;;;;13.70;7.30;;;;;;;13.53;45.22;101102.09;5012090;28;20124;-75
2021/10/11 08:46:15;;;;;;;18.27;6.87;;;;;;;13.71;45.06;101099.84;5006325;28;20126;-75
2021/10/11 08:48:41;;;;;;;20.03;7.40;;;;;;;13.89;44.83;101105.03;5009315;28;20146;-76
2021/10/11 08:51:09;;;;;;;13.23;6.30;;;;;;;13.97;44.85;101100.97;5008324;28;20149;-76
2021/10/11 08:53:37;;;;;;;15.20;7.07;;;;;;;13.98;44.99;101097.81;5009028;28;20057;-75
2021/10/11 08:56:04;;;;;;;10.40;7.07;;;;;;;13.96;44.88;101097.47;5007744;28;20049;-76
2021/10/11 08:58:45;;;;;;;13.00;7.20;;;;;;;13.87;45.29;101083.63;5023153;28;20761;-75
2021/10/11 09:01:13;;;;;;;14.80;7.10;;;;;;;13.83;44.92;101093.81;5008585;28;20559;-76
2021/10/11 09:03:41;;;;;;;20.27;7.67;;;;;;;13.81;45.08;101093.47;5010046;28;20129;-75
2021/10/11 09:06:11;;;;;;;12.37;7.07;;;;;;;13.80;44.99;101086.47;5002720;28;20061;-75
2021/10/11 09:08:40;;;;;;;14.97;7.97;;;;;;;13.74;44.88;101081.88;5006503;28;20080;-76
2021/10/11 09:11:10;;;;;;;16.17;7.57;;;;;;;13.78;45.11;101088.81;5010763;28;20741;-76
2021/10/11 09:13:51;;;;;;;16.67;7.03;;;;;;;13.82;44.80;101081.34;5014468;28;20128;-76
2021/10/11 09:16:41;;;;;;;14.27;6.57;;;;;;;13.88;44.89;101085.16;5014395;28;20128;-75
2021/10/11 09:19:14;;;;;;;14.73;6.77;;;;;;;13.96;44.72;101072.91;5009230;28;20042;-76
2021/10/11 09:21:41;;;;;;;19.48;8.15;;;;;;;13.97;44.93;101071.72;5002533;28;20124;-75
2021/10/11 09:24:10;;;;;;;14.20;7.73;;;;;;;13.98;44.36;101067.81;5009198;28;20144;-75
2021/10/11 09:27:06;;;;;;;13.70;6.60;;;;;;;14.00;44.80;101067.38;5013743;28;20085;-75
2021/10/11 09:29:35;;;;;;;10.80;6.77;;;;;;;14.05;44.24;101052.47;4995628;28;20084;-74
2021/10/11 09:32:09;;;;;;;15.23;6.67;;;;;;;14.15;44.24;101051.53;5013274;28;20629;-76
2021/10/11 09:34:39;;;;;;;14.43;6.68;;;;;;;14.46;43.85;101050.13;5013494;28;20505;-75
2021/10/11 09:37:09;;;;;;;12.33;7.00;;;;;;;14.65;43.38;101046.59;5040588;28;20104;-75
2021/10/11 09:39:38;;;;;;;15.77;7.47;;;;;;;14.82;43.06;101043.91;5012101;28;20056;-76
2021/10/11 09:42:09;;;;;;;21.27;8.67;;;;;;;15.12;42.71;101045.56;5013135;28;20058;-74
2021/10/11 09:44:36;;;;;;;16.40;8.63;;;;;;;15.84;41.58;101040.66;5012455;28;20093;-75
2021/10/11 09:47:08;;;;;;;15.40;8.63;;;;;;;16.22;40.80;101031.81;5013511;28;20477;-74
2021/10/11 09:49:36;;;;;;;16.00;8.50;;;;;;;16.31;40.59;101034.69;5025546;28;20073;-75
2021/10/11 09:52:03;;;;;;;14.98;7.60;;;;;;;16.20;40.76;101028.75;5009430;28;20054;-76
2021/10/11 09:54:30;;;;;;;16.02;8.23;;;;;;;16.20;41.04;101024.03;5012279;28;20422;-75
2021/10/11 09:57:00;;;;;;;14.05;7.70;;;;;;;16.30;40.82;101019.44;5012849;28;20128;-74
2021/10/11 09:59:29;;;;;;;16.30;7.45;;;;;;;16.43;40.58;101017.50;5012293;28;20085;-76
2021/10/11 10:01:57;;;;;;;15.27;7.63;;;;;;;16.58;39.95;101013.13;5011919;28;20108;-74
2021/10/11 10:04:29;;;;;;;14.95;8.52;;;;;;;16.73;40.42;101005.28;5011014;28;20053;-75
2021/10/11 10:07:01;;;;;;;15.57;7.78;;;;;;;16.92;39.77;101007.03;5011507;28;20422;-76
2021/10/11 10:09:33;;;;;;;16.30;7.95;;;;;;;17.07;39.90;100996.38;5015165;28;20050;-76
2021/10/11 10:12:04;;;;;;;16.42;9.25;;;;;;;17.26;38.83;101000.84;5012936;28;20120;-75
2021/10/11 10:14:33;;;;;;;14.35;8.00;;;;;;;17.54;38.91;101006.59;5017348;28;20046;-74
2021/10/11 10:17:00;;;;;;;15.65;8.30;;;;;;;17.61;38.88;101000.84;5012618;28;20148;-75
2021/10/11 10:19:40;;;;;;;13.20;7.22;;;;;;;17.57;39.01;101000.22;5012458;28;20137;-76
2021/10/11 10:22:17;;;;;;;16.33;7.55;;;;;;;17.49;38.98;101001.66;5007877;28;20077;-74
2021/10/11 10:24:46;;;;;;;13.38;7.03;;;;;;;17.35;39.43;101000.94;5009855;28;20088;-75
2021/10/11 10:27:14;;;;;;;16.83;6.97;;;;;;;17.31;39.54;100989.31;5012624;28;20065;-75
2021/10/11 10:29:47;;;;;;;15.35;6.22;;;;;;;17.46;39.41;100994.31;5010736;28;20107;-75
2021/10/11 10:32:18;;;;;;;16.15;7.40;;;;;;;17.83;39.01;100985.19;5007581;28;20058;-75
2021/10/11 10:35:00;;;;;;;14.88;7.53;;;;;;;17.79;39.11;100987.28;5011271;28;20046;-75
2021/10/11 10:37:38;;;;;;;13.85;6.80;;;;;;;17.55;39.12;100986.94;5025085;28;20081;-78
2021/10/11 10:40:13;;;;;;;14.25;6.80;;;;;;;17.66;39.27;100981.09;5006976;28;20064;-75
2021/10/11 10:42:40;;;;;;;18.25;7.40;;;;;;;17.87;39.21;100974.84;5011251;28;20070;-74
2021/10/11 10:45:23;;;;;;;11.07;6.60;;;;;;;17.79;39.78;100973.56;5011875;28;20130;-75
2021/10/11 10:47:50;;;;;;;13.90;6.05;;;;;;;17.61;40.00;100984.38;5006248;28;20097;-75
2021/10/11 10:50:22;;;;;;;9.30;5.90;;;;;;;17.54;39.89;100970.91;5025851;28;20092;-76
2021/10/11 10:52:51;;;;;;;8.25;6.03;;;;;;;18.02;39.61;100975.09;5013227;28;20054;-74
2021/10/11 10:55:19;;;;;;;10.85;5.75;;;;;;;18.33;39.35;100961.38;5014146;28;20054;-74
2021/10/11 10:57:46;;;;;;;15.07;6.53;;;;;;;18.25;39.76;100960.13;5009356;28;20138;-75
2021/10/11 11:00:18;;;;;;;14.90;6.38;;;;;;;18.08;39.49;100958.81;5011146;28;20050;-75
2021/10/11 11:02:49;;;;;;;10.60;5.82;;;;;;;18.03;39.45;100960.16;5006798;28;20096;-75
2021/10/11 11:05:18;;;;;;;14.48;7.07;;;;;;;18.03;39.52;100965.63;5007825;28;20134;-75
2021/10/11 11:07:47;;;;;;;10.73;5.90;;;;;;;18.50;39.01;100946.19;5011195;28;20104;-76
2021/10/11 11:10:27;;;;;;;13.38;5.93;;;;;;;19.10;38.19;100940.28;5010886;28;20050;-74
2021/10/11 11:13:14;;;;;;;11.15;6.13;;;;;;;19.61;37.72;100939.69;5017142;28;20132;-74
2021/10/11 11:15:48;;;;;;;10.00;6.28;;;;;;;19.98;36.26;100940.41;5003123;28;20049;-74
2021/10/11 11:18:19;;;;;;;12.65;5.80;;;;;;;20.12;36.79;100941.75;5008572;28;20050;-74
2021/10/11 11:20:48;;;;;;;13.48;5.90;;;;;;;19.67;37.34;100946.13;5011108;28;20482;-75